sensor_id;sensor_type;location;lat;lon;timestamp;pressure;altitude;pressure_sealevel;temperature;humidity
21276;BME280;36472;52.170;20.884;2024-02-15T00:01:38;101022.03;;;6.79;63.73
21276;BME280;36472;52.170;20.884;2024-02-15T00:04:07;101019.97;;;6.87;63.23
21276;BME280;36472;52.170;20.884;2024-02-15T00:06:38;101013.38;;;6.99;63.21
21276;BME280;36472;52.170;20.884;2024-02-15T00:09:07;101011.78;;;6.95;63.05
21276;BME280;36472;52.170;20.884;2024-02-15T00:11:36;101011.88;;;7.14;62.57
21276;BME280;36472;52.170;20.884;2024-02-15T00:14:08;101017.41;;;6.85;62.91
21276;BME280;36472;52.170;20.884;2024-02-15T00:16:38;101014.72;;;6.87;63.25
21276;BME280;36472;52.170;20.884;2024-02-15T00:19:07;101017.81;;;6.74;63.12
21276;BME280;36472;52.170;20.884;2024-02-15T00:21:36;101018.25;;;6.86;63.19
21276;BME280;36472;52.170;20.884;2024-02-15T00:24:06;101021.94;;;7.02;61.89
21276;BME280;36472;52.170;20.884;2024-02-15T00:26:35;101018.28;;;7.06;61.82
21276;BME280;36472;52.170;20.884;2024-02-15T00:29:04;101018.22;;;7.08;61.95
21276;BME280;36472;52.170;20.884;2024-02-15T00:31:34;101021.41;;;6.94;62.32
21276;BME280;36472;52.170;20.884;2024-02-15T00:34:06;101013.97;;;7.05;62.00
21276;BME280;36472;52.170;20.884;2024-02-15T00:36:37;101025.47;;;7.01;61.99
21276;BME280;36472;52.170;20.884;2024-02-15T00:39:07;101023.84;;;6.99;62.61
21276;BME280;36472;52.170;20.884;2024-02-15T00:41:36;101028.63;;;7.09;62.40
21276;BME280;36472;52.170;20.884;2024-02-15T00:44:05;101029.41;;;6.89;62.71
21276;BME280;36472;52.170;20.884;2024-02-15T00:46:36;101022.41;;;6.90;63.01
21276;BME280;36472;52.170;20.884;2024-02-15T00:49:05;101018.13;;;6.89;62.65
21276;BME280;36472;52.170;20.884;2024-02-15T00:51:35;101020.78;;;6.87;62.87
21276;BME280;36472;52.170;20.884;2024-02-15T00:54:05;101021.81;;;7.05;62.68
21276;BME280;36472;52.170;20.884;2024-02-15T00:56:34;101015.06;;;6.78;63.00
21276;BME280;36472;52.170;20.884;2024-02-15T00:59:03;101019.91;;;6.88;63.10
21276;BME280;36472;52.170;20.884;2024-02-15T01:01:34;101018.06;;;6.68;63.43
21276;BME280;36472;52.170;20.884;2024-02-15T01:04:05;101018.91;;;6.69;63.75
21276;BME280;36472;52.170;20.884;2024-02-15T01:06:35;101011.69;;;6.76;63.50
21276;BME280;36472;52.170;20.884;2024-02-15T01:09:04;101013.19;;;6.81;63.30
21276;BME280;36472;52.170;20.884;2024-02-15T01:11:35;101014.78;;;6.63;63.65
21276;BME280;36472;52.170;20.884;2024-02-15T01:14:05;101009.19;;;6.72;63.39
21276;BME280;36472;52.170;20.884;2024-02-15T01:16:38;101011.41;;;6.38;64.31
21276;BME280;36472;52.170;20.884;2024-02-15T01:19:08;101011.56;;;6.79;63.51
21276;BME280;36472;52.170;20.884;2024-02-15T01:21:37;101011.44;;;6.60;63.83
21276;BME280;36472;52.170;20.884;2024-02-15T01:24:06;101010.47;;;6.62;64.30
21276;BME280;36472;52.170;20.884;2024-02-15T01:26:35;101003.47;;;6.85;63.46
21276;BME280;36472;52.170;20.884;2024-02-15T01:29:05;100998.19;;;6.86;63.46
21276;BME280;36472;52.170;20.884;2024-02-15T01:31:34;101000.06;;;6.83;63.16
21276;BME280;36472;52.170;20.884;2024-02-15T01:34:04;100998.78;;;6.49;64.53
21276;BME280;36472;52.170;20.884;2024-02-15T01:36:33;100996.25;;;6.69;64.02
21276;BME280;36472;52.170;20.884;2024-02-15T01:39:03;101001.09;;;6.57;64.35
21276;BME280;36472;52.170;20.884;2024-02-15T01:41:33;101010.63;;;6.80;64.02
21276;BME280;36472;52.170;20.884;2024-02-15T01:44:02;101001.66;;;6.87;63.19
21276;BME280;36472;52.170;20.884;2024-02-15T01:46:32;100996.50;;;6.85;63.71
21276;BME280;36472;52.170;20.884;2024-02-15T01:49:01;100992.78;;;6.91;63.10
21276;BME280;36472;52.170;20.884;2024-02-15T01:51:32;100991.81;;;6.93;63.42
21276;BME280;36472;52.170;20.884;2024-02-15T01:54:04;100986.50;;;6.95;62.39
21276;BME280;36472;52.170;20.884;2024-02-15T01:56:33;100986.03;;;6.85;63.21
21276;BME280;36472;52.170;20.884;2024-02-15T01:59:03;100991.59;;;6.98;62.66
21276;BME280;36472;52.170;20.884;2024-02-15T02:01:33;100985.66;;;6.95;63.06
21276;BME280;36472;52.170;20.884;2024-02-15T02:04:03;100988.56;;;6.66;64.38
21276;BME280;36472;52.170;20.884;2024-02-15T02:06:34;100983.84;;;6.74;64.31
21276;BME280;36472;52.170;20.884;2024-02-15T02:09:03;100976.50;;;6.84;64.21
21276;BME280;36472;52.170;20.884;2024-02-15T02:11:32;100979.81;;;6.88;63.62
21276;BME280;36472;52.170;20.884;2024-02-15T02:14:02;100981.84;;;6.81;63.82
21276;BME280;36472;52.170;20.884;2024-02-15T02:16:32;100977.00;;;6.72;64.85
21276;BME280;36472;52.170;20.884;2024-02-15T02:19:02;100980.09;;;6.82;64.19
21276;BME280;36472;52.170;20.884;2024-02-15T02:21:38;100979.78;;;6.89;64.26
21276;BME280;36472;52.170;20.884;2024-02-15T02:24:14;100982.09;;;6.97;63.44
21276;BME280;36472;52.170;20.884;2024-02-15T02:26:48;100983.94;;;6.73;64.10
21276;BME280;36472;52.170;20.884;2024-02-15T02:29:18;100984.34;;;6.84;64.00
21276;BME280;36472;52.170;20.884;2024-02-15T02:31:46;100979.59;;;6.94;64.06
21276;BME280;36472;52.170;20.884;2024-02-15T02:34:16;100984.09;;;6.90;63.27
21276;BME280;36472;52.170;20.884;2024-02-15T02:36:47;100981.66;;;6.86;63.91
21276;BME280;36472;52.170;20.884;2024-02-15T02:39:18;100975.09;;;6.98;63.76
21276;BME280;36472;52.170;20.884;2024-02-15T02:41:48;100982.47;;;7.08;63.63
21276;BME280;36472;52.170;20.884;2024-02-15T02:44:17;100975.72;;;6.82;63.29
21276;BME280;36472;52.170;20.884;2024-02-15T02:46:46;100981.00;;;6.81;63.82
21276;BME280;36472;52.170;20.884;2024-02-15T02:49:15;100974.88;;;6.82;64.43
21276;BME280;36472;52.170;20.884;2024-02-15T02:51:44;100970.94;;;6.71;64.35
21276;BME280;36472;52.170;20.884;2024-02-15T02:54:14;100980.31;;;6.98;63.97
21276;BME280;36472;52.170;20.884;2024-02-15T02:56:43;100980.56;;;6.91;63.75
21276;BME280;36472;52.170;20.884;2024-02-15T02:59:14;100982.63;;;6.39;65.05
21276;BME280;36472;52.170;20.884;2024-02-15T03:01:44;100977.53;;;6.80;65.01
21276;BME280;36472;52.170;20.884;2024-02-15T03:04:15;100978.38;;;6.81;65.13
21276;BME280;36472;52.170;20.884;2024-02-15T03:06:45;100973.16;;;6.81;64.91
21276;BME280;36472;52.170;20.884;2024-02-15T03:09:15;100983.56;;;6.60;65.16
21276;BME280;36472;52.170;20.884;2024-02-15T03:11:44;100984.69;;;6.97;64.54
21276;BME280;36472;52.170;20.884;2024-02-15T03:14:15;100988.22;;;6.96;64.05
21276;BME280;36472;52.170;20.884;2024-02-15T03:16:44;100983.72;;;7.00;64.35
21276;BME280;36472;52.170;20.884;2024-02-15T03:19:13;100975.09;;;6.76;65.21
21276;BME280;36472;52.170;20.884;2024-02-15T03:21:42;100985.44;;;6.57;65.21
21276;BME280;36472;52.170;20.884;2024-02-15T03:24:14;100981.38;;;6.93;65.27
21276;BME280;36472;52.170;20.884;2024-02-15T03:26:43;100986.66;;;6.70;65.42
21276;BME280;36472;52.170;20.884;2024-02-15T03:29:14;100989.00;;;6.98;65.03
21276;BME280;36472;52.170;20.884;2024-02-15T03:31:43;100985.09;;;7.08;64.65
21276;BME280;36472;52.170;20.884;2024-02-15T03:34:12;100989.38;;;6.89;64.71
21276;BME280;36472;52.170;20.884;2024-02-15T03:36:43;100982.00;;;6.78;65.40
21276;BME280;36472;52.170;20.884;2024-02-15T03:39:13;100981.78;;;6.83;65.62
21276;BME280;36472;52.170;20.884;2024-02-15T03:41:42;100983.97;;;6.93;65.13
21276;BME280;36472;52.170;20.884;2024-02-15T03:44:14;100985.59;;;6.96;65.34
21276;BME280;36472;52.170;20.884;2024-02-15T03:46:46;100974.72;;;6.85;65.44
21276;BME280;36472;52.170;20.884;2024-02-15T03:49:19;100979.38;;;6.78;65.99
21276;BME280;36472;52.170;20.884;2024-02-15T03:51:49;100977.09;;;6.91;65.98
21276;BME280;36472;52.170;20.884;2024-02-15T03:54:18;100978.16;;;6.87;65.67
21276;BME280;36472;52.170;20.884;2024-02-15T03:56:48;100971.94;;;6.89;66.14
21276;BME280;36472;52.170;20.884;2024-02-15T03:59:21;100979.78;;;6.67;66.40
21276;BME280;36472;52.170;20.884;2024-02-15T04:01:54;100972.38;;;6.79;66.25
21276;BME280;36472;52.170;20.884;2024-02-15T04:04:24;100976.31;;;6.89;66.27
21276;BME280;36472;52.170;20.884;2024-02-15T04:06:54;100982.03;;;6.77;66.28
21276;BME280;36472;52.170;20.884;2024-02-15T04:09:23;100974.22;;;6.77;66.25
21276;BME280;36472;52.170;20.884;2024-02-15T04:11:53;100981.66;;;6.86;66.03
21276;BME280;36472;52.170;20.884;2024-02-15T04:14:27;100978.66;;;6.95;66.30
21276;BME280;36472;52.170;20.884;2024-02-15T04:16:56;100968.47;;;6.89;66.31
21276;BME280;36472;52.170;20.884;2024-02-15T04:19:27;100981.13;;;6.78;66.32
21276;BME280;36472;52.170;20.884;2024-02-15T04:21:56;100976.63;;;6.81;66.76
21276;BME280;36472;52.170;20.884;2024-02-15T04:24:26;100976.81;;;6.77;66.87
21276;BME280;36472;52.170;20.884;2024-02-15T04:26:54;100975.03;;;6.55;67.65
21276;BME280;36472;52.170;20.884;2024-02-15T04:29:26;100982.03;;;6.54;67.51
21276;BME280;36472;52.170;20.884;2024-02-15T04:31:54;100987.50;;;6.70;67.63
21276;BME280;36472;52.170;20.884;2024-02-15T04:34:24;100984.22;;;6.43;67.95
21276;BME280;36472;52.170;20.884;2024-02-15T04:36:53;100985.59;;;6.52;67.88
21276;BME280;36472;52.170;20.884;2024-02-15T04:39:23;100980.94;;;6.60;67.55
21276;BME280;36472;52.170;20.884;2024-02-15T04:41:54;100985.97;;;6.43;68.42
21276;BME280;36472;52.170;20.884;2024-02-15T04:44:25;100984.41;;;6.61;67.90
21276;BME280;36472;52.170;20.884;2024-02-15T04:46:55;100983.84;;;6.74;67.71
21276;BME280;36472;52.170;20.884;2024-02-15T04:49:25;100976.22;;;6.70;67.81
21276;BME280;36472;52.170;20.884;2024-02-15T04:51:57;100974.44;;;6.70;68.14
21276;BME280;36472;52.170;20.884;2024-02-15T04:54:29;100984.59;;;6.56;68.72
21276;BME280;36472;52.170;20.884;2024-02-15T04:56:58;100982.44;;;6.66;68.39
21276;BME280;36472;52.170;20.884;2024-02-15T04:59:30;100988.38;;;6.47;68.09
21276;BME280;36472;52.170;20.884;2024-02-15T05:01:59;100992.44;;;6.56;68.13
21276;BME280;36472;52.170;20.884;2024-02-15T05:04:29;100992.28;;;6.59;68.24
21276;BME280;36472;52.170;20.884;2024-02-15T05:06:57;100989.16;;;6.73;67.31
21276;BME280;36472;52.170;20.884;2024-02-15T05:09:27;100986.28;;;6.79;67.47
21276;BME280;36472;52.170;20.884;2024-02-15T05:11:55;100991.88;;;6.48;68.37
21276;BME280;36472;52.170;20.884;2024-02-15T05:14:25;100991.78;;;6.27;69.12
21276;BME280;36472;52.170;20.884;2024-02-15T05:16:55;100984.16;;;6.45;68.69
21276;BME280;36472;52.170;20.884;2024-02-15T05:19:24;100984.16;;;6.45;69.39
21276;BME280;36472;52.170;20.884;2024-02-15T05:21:53;100987.50;;;6.70;68.47
21276;BME280;36472;52.170;20.884;2024-02-15T05:24:23;100988.00;;;6.80;68.69
21276;BME280;36472;52.170;20.884;2024-02-15T05:26:52;100997.22;;;6.89;67.99
21276;BME280;36472;52.170;20.884;2024-02-15T05:29:21;100997.91;;;6.72;68.89
21276;BME280;36472;52.170;20.884;2024-02-15T05:31:51;101003.50;;;6.63;69.61
21276;BME280;36472;52.170;20.884;2024-02-15T05:34:23;101006.22;;;6.82;69.16
21276;BME280;36472;52.170;20.884;2024-02-15T05:36:54;100999.84;;;6.89;69.26
21276;BME280;36472;52.170;20.884;2024-02-15T05:39:24;101001.47;;;6.91;68.89
21276;BME280;36472;52.170;20.884;2024-02-15T05:41:53;100999.16;;;6.62;70.81
21276;BME280;36472;52.170;20.884;2024-02-15T05:44:22;101004.28;;;6.65;71.22
21276;BME280;36472;52.170;20.884;2024-02-15T05:46:53;101004.50;;;6.81;71.54
21276;BME280;36472;52.170;20.884;2024-02-15T05:49:23;101007.84;;;6.84;71.66
21276;BME280;36472;52.170;20.884;2024-02-15T05:51:53;101013.06;;;6.62;72.89
21276;BME280;36472;52.170;20.884;2024-02-15T05:54:22;101012.03;;;6.44;74.25
21276;BME280;36472;52.170;20.884;2024-02-15T05:56:51;101009.91;;;6.54;74.63
21276;BME280;36472;52.170;20.884;2024-02-15T05:59:22;101006.72;;;6.24;77.17
21276;BME280;36472;52.170;20.884;2024-02-15T06:01:51;101009.53;;;6.17;78.18
21276;BME280;36472;52.170;20.884;2024-02-15T06:04:20;101016.31;;;5.99;79.94
21276;BME280;36472;52.170;20.884;2024-02-15T06:06:52;101019.63;;;6.27;79.82
21276;BME280;36472;52.170;20.884;2024-02-15T06:09:27;101014.03;;;5.89;81.59
21276;BME280;36472;52.170;20.884;2024-02-15T06:11:58;101013.97;;;6.15;81.65
21276;BME280;36472;52.170;20.884;2024-02-15T06:14:28;101014.25;;;6.31;81.18
21276;BME280;36472;52.170;20.884;2024-02-15T06:16:56;101017.44;;;6.16;81.71
21276;BME280;36472;52.170;20.884;2024-02-15T06:19:25;101021.66;;;6.20;82.67
21276;BME280;36472;52.170;20.884;2024-02-15T06:21:56;101025.38;;;6.13;83.33
21276;BME280;36472;52.170;20.884;2024-02-15T06:24:25;101027.47;;;6.27;82.76
21276;BME280;36472;52.170;20.884;2024-02-15T06:26:55;101028.59;;;6.43;82.39
21276;BME280;36472;52.170;20.884;2024-02-15T06:29:27;101027.81;;;6.17;83.55
21276;BME280;36472;52.170;20.884;2024-02-15T06:32:14;101018.56;;;6.32;83.78
21276;BME280;36472;52.170;20.884;2024-02-15T06:35:15;101024.13;;;5.99;85.46
21276;BME280;36472;52.170;20.884;2024-02-15T06:38:03;101034.22;;;6.32;84.45
21276;BME280;36472;52.170;20.884;2024-02-15T06:40:49;101030.22;;;6.24;85.01
21276;BME280;36472;52.170;20.884;2024-02-15T06:43:18;101034.28;;;6.31;85.16
21276;BME280;36472;52.170;20.884;2024-02-15T06:45:48;101035.06;;;6.33;85.43
21276;BME280;36472;52.170;20.884;2024-02-15T06:48:18;101035.41;;;6.00;86.97
21276;BME280;36472;52.170;20.884;2024-02-15T06:50:48;101037.00;;;6.04;87.95
21276;BME280;36472;52.170;20.884;2024-02-15T06:53:19;101034.38;;;5.79;89.61
21276;BME280;36472;52.170;20.884;2024-02-15T06:55:49;101039.06;;;5.94;89.91
21276;BME280;36472;52.170;20.884;2024-02-15T06:58:18;101037.97;;;6.02;90.01
21276;BME280;36472;52.170;20.884;2024-02-15T07:00:48;101043.09;;;6.05;89.73
21276;BME280;36472;52.170;20.884;2024-02-15T07:03:17;101040.56;;;6.02;90.11
21276;BME280;36472;52.170;20.884;2024-02-15T07:05:47;101042.81;;;5.86;91.20
21276;BME280;36472;52.170;20.884;2024-02-15T07:08:16;101043.34;;;5.97;91.32
21276;BME280;36472;52.170;20.884;2024-02-15T07:10:47;101051.28;;;5.92;92.16
21276;BME280;36472;52.170;20.884;2024-02-15T07:13:16;101052.94;;;5.96;92.82
21276;BME280;36472;52.170;20.884;2024-02-15T07:15:45;101045.81;;;6.02;92.98
21276;BME280;36472;52.170;20.884;2024-02-15T07:18:17;101046.81;;;5.72;93.88
21276;BME280;36472;52.170;20.884;2024-02-15T07:20:56;101046.31;;;5.86;94.59
21276;BME280;36472;52.170;20.884;2024-02-15T07:23:27;101048.63;;;5.94;94.14
21276;BME280;36472;52.170;20.884;2024-02-15T07:25:58;101042.69;;;5.90;94.34
21276;BME280;36472;52.170;20.884;2024-02-15T07:28:26;101051.16;;;5.97;94.45
21276;BME280;36472;52.170;20.884;2024-02-15T07:30:56;101056.34;;;5.98;94.87
21276;BME280;36472;52.170;20.884;2024-02-15T07:33:25;101059.00;;;5.97;95.66
21276;BME280;36472;52.170;20.884;2024-02-15T07:35:54;101054.88;;;5.90;96.01
21276;BME280;36472;52.170;20.884;2024-02-15T07:38:24;101053.78;;;5.97;96.19
21276;BME280;36472;52.170;20.884;2024-02-15T07:40:53;101054.63;;;5.97;96.19
21276;BME280;36472;52.170;20.884;2024-02-15T07:43:24;101047.78;;;5.93;97.04
21276;BME280;36472;52.170;20.884;2024-02-15T07:45:54;101046.25;;;5.88;96.83
21276;BME280;36472;52.170;20.884;2024-02-15T07:48:23;101043.00;;;5.81;98.50
21276;BME280;36472;52.170;20.884;2024-02-15T07:50:53;101043.47;;;5.92;97.71
21276;BME280;36472;52.170;20.884;2024-02-15T07:53:22;101050.72;;;5.84;98.17
21276;BME280;36472;52.170;20.884;2024-02-15T07:55:52;101041.78;;;5.91;98.11
21276;BME280;36472;52.170;20.884;2024-02-15T07:58:21;101038.38;;;5.64;98.92
21276;BME280;36472;52.170;20.884;2024-02-15T08:00:52;101044.19;;;5.97;98.90
21276;BME280;36472;52.170;20.884;2024-02-15T08:03:21;101043.69;;;5.86;99.56
21276;BME280;36472;52.170;20.884;2024-02-15T08:05:50;101045.22;;;5.67;99.74
21276;BME280;36472;52.170;20.884;2024-02-15T08:08:20;101041.94;;;5.87;99.28
21276;BME280;36472;52.170;20.884;2024-02-15T08:10:49;101050.28;;;5.98;98.80
21276;BME280;36472;52.170;20.884;2024-02-15T08:13:19;101049.59;;;5.91;98.27
21276;BME280;36472;52.170;20.884;2024-02-15T08:15:51;101050.41;;;5.93;98.10
21276;BME280;36472;52.170;20.884;2024-02-15T08:18:21;101048.00;;;5.87;98.63
21276;BME280;36472;52.170;20.884;2024-02-15T08:20:50;101050.56;;;6.14;98.32
21276;BME280;36472;52.170;20.884;2024-02-15T08:23:19;101048.72;;;5.91;97.92
21276;BME280;36472;52.170;20.884;2024-02-15T08:25:49;101048.34;;;6.03;97.62
21276;BME280;36472;52.170;20.884;2024-02-15T08:28:19;101044.78;;;6.29;97.01
21276;BME280;36472;52.170;20.884;2024-02-15T08:30:55;101048.84;;;6.13;97.59
21276;BME280;36472;52.170;20.884;2024-02-15T08:33:25;101055.94;;;6.09;97.61
21276;BME280;36472;52.170;20.884;2024-02-15T08:35:56;101049.91;;;5.82;99.50
21276;BME280;36472;52.170;20.884;2024-02-15T08:38:26;101050.50;;;6.15;98.38
21276;BME280;36472;52.170;20.884;2024-02-15T08:40:55;101045.13;;;6.20;97.80
21276;BME280;36472;52.170;20.884;2024-02-15T08:43:24;101058.41;;;6.38;96.91
21276;BME280;36472;52.170;20.884;2024-02-15T08:45:54;101058.41;;;6.38;96.35
21276;BME280;36472;52.170;20.884;2024-02-15T08:48:23;101060.13;;;6.61;95.36
21276;BME280;36472;52.170;20.884;2024-02-15T08:50:53;101056.22;;;6.49;95.70
21276;BME280;36472;52.170;20.884;2024-02-15T08:53:22;101067.34;;;6.54;95.38
21276;BME280;36472;52.170;20.884;2024-02-15T08:55:52;101072.94;;;6.45;95.27
21276;BME280;36472;52.170;20.884;2024-02-15T08:58:21;101070.97;;;6.73;94.92
21276;BME280;36472;52.170;20.884;2024-02-15T09:00:51;101068.84;;;6.61;94.73
21276;BME280;36472;52.170;20.884;2024-02-15T09:03:23;101073.75;;;6.69;94.50
21276;BME280;36472;52.170;20.884;2024-02-15T09:05:53;101075.44;;;6.93;93.53
21276;BME280;36472;52.170;20.884;2024-02-15T09:08:22;101071.47;;;7.05;93.05
21276;BME280;36472;52.170;20.884;2024-02-15T09:10:51;101079.22;;;6.85;93.76
21276;BME280;36472;52.170;20.884;2024-02-15T09:13:21;101077.28;;;6.90;93.47
21276;BME280;36472;52.170;20.884;2024-02-15T09:15:51;101069.91;;;7.01;93.66
21276;BME280;36472;52.170;20.884;2024-02-15T09:18:20;101073.53;;;6.75;94.28
21276;BME280;36472;52.170;20.884;2024-02-15T09:20:52;101069.22;;;6.96;93.67
21276;BME280;36472;52.170;20.884;2024-02-15T09:23:23;101075.84;;;7.05;92.89
21276;BME280;36472;52.170;20.884;2024-02-15T09:25:52;101073.78;;;7.13;92.37
21276;BME280;36472;52.170;20.884;2024-02-15T09:28:21;101077.50;;;7.29;92.28
21276;BME280;36472;52.170;20.884;2024-02-15T09:30:51;101078.56;;;7.24;92.35
21276;BME280;36472;52.170;20.884;2024-02-15T09:33:20;101084.94;;;7.39;91.70
21276;BME280;36472;52.170;20.884;2024-02-15T09:35:49;101089.53;;;7.11;92.57
21276;BME280;36472;52.170;20.884;2024-02-15T09:38:20;101086.00;;;7.35;92.40
21276;BME280;36472;52.170;20.884;2024-02-15T09:40:49;101089.06;;;7.44;92.83
21276;BME280;36472;52.170;20.884;2024-02-15T09:43:18;101085.03;;;7.58;92.11
21276;BME280;36472;52.170;20.884;2024-02-15T09:45:47;101087.91;;;7.09;93.96
21276;BME280;36472;52.170;20.884;2024-02-15T09:48:17;101089.25;;;7.19;94.78
21276;BME280;36472;52.170;20.884;2024-02-15T09:50:52;101082.66;;;7.31;94.47
21276;BME280;36472;52.170;20.884;2024-02-15T09:53:25;101074.88;;;7.29;94.52
21276;BME280;36472;52.170;20.884;2024-02-15T09:55:59;101083.53;;;7.09;96.21
21276;BME280;36472;52.170;20.884;2024-02-15T09:58:32;101080.28;;;7.25;96.21
21276;BME280;36472;52.170;20.884;2024-02-15T10:01:04;101085.34;;;7.07;96.89
21276;BME280;36472;52.170;20.884;2024-02-15T10:03:38;101085.88;;;7.16;97.73
21276;BME280;36472;52.170;20.884;2024-02-15T10:06:08;101084.47;;;7.07;98.65
21276;BME280;36472;52.170;20.884;2024-02-15T10:08:39;101079.97;;;7.10;98.95
21276;BME280;36472;52.170;20.884;2024-02-15T10:11:09;101080.47;;;7.20;99.03
21276;BME280;36472;52.170;20.884;2024-02-15T10:13:39;101077.50;;;7.29;98.71
21276;BME280;36472;52.170;20.884;2024-02-15T10:16:16;101073.41;;;7.00;99.56
21276;BME280;36472;52.170;20.884;2024-02-15T10:18:46;101075.28;;;7.19;100.00
21276;BME280;36472;52.170;20.884;2024-02-15T10:21:26;101070.63;;;7.27;99.95
21276;BME280;36472;52.170;20.884;2024-02-15T10:24:07;101072.25;;;7.29;99.55
21276;BME280;36472;52.170;20.884;2024-02-15T10:26:37;101065.34;;;7.06;100.00
21276;BME280;36472;52.170;20.884;2024-02-15T10:29:08;101060.22;;;7.25;100.00
21276;BME280;36472;52.170;20.884;2024-02-15T10:31:40;101063.13;;;7.40;99.24
21276;BME280;36472;52.170;20.884;2024-02-15T10:34:21;101058.59;;;7.23;100.00
21276;BME280;36472;52.170;20.884;2024-02-15T10:36:51;101059.84;;;7.35;100.00
21276;BME280;36472;52.170;20.884;2024-02-15T10:39:21;101051.38;;;7.50;99.38
21276;BME280;36472;52.170;20.884;2024-02-15T10:41:53;101047.03;;;7.70;99.03
21276;BME280;36472;52.170;20.884;2024-02-15T10:44:24;101046.31;;;7.66;99.18
21276;BME280;36472;52.170;20.884;2024-02-15T10:46:54;101044.59;;;7.44;99.92
21276;BME280;36472;52.170;20.884;2024-02-15T10:49:24;101046.63;;;7.58;99.38
21276;BME280;36472;52.170;20.884;2024-02-15T10:51:58;101046.31;;;7.25;100.00
21276;BME280;36472;52.170;20.884;2024-02-15T10:54:41;101046.72;;;7.57;100.00
21276;BME280;36472;52.170;20.884;2024-02-15T10:57:12;101051.72;;;7.20;100.00
21276;BME280;36472;52.170;20.884;2024-02-15T10:59:54;101041.03;;;7.47;100.00
21276;BME280;36472;52.170;20.884;2024-02-15T11:02:30;101041.56;;;7.55;100.00
21276;BME280;36472;52.170;20.884;2024-02-15T11:05:03;101043.19;;;7.78;100.00
21276;BME280;36472;52.170;20.884;2024-02-15T11:07:39;101045.44;;;7.67;100.00
21276;BME280;36472;52.170;20.884;2024-02-15T11:10:10;101044.66;;;7.84;100.00
21276;BME280;36472;52.170;20.884;2024-02-15T11:12:44;101048.91;;;8.07;100.00
21276;BME280;36472;52.170;20.884;2024-02-15T11:15:46;101048.66;;;8.13;99.03
21276;BME280;36472;52.170;20.884;2024-02-15T11:18:44;101038.25;;;8.31;98.85
21276;BME280;36472;52.170;20.884;2024-02-15T11:21:17;101042.13;;;8.42;99.00
21276;BME280;36472;52.170;20.884;2024-02-15T11:23:47;101041.38;;;8.39;98.60
21276;BME280;36472;52.170;20.884;2024-02-15T11:26:46;101038.50;;;8.45;99.15
21276;BME280;36472;52.170;20.884;2024-02-15T11:29:49;101041.03;;;8.47;98.94
21276;BME280;36472;52.170;20.884;2024-02-15T11:32:37;101035.50;;;8.72;98.41
21276;BME280;36472;52.170;20.884;2024-02-15T11:35:09;101028.88;;;8.46;99.28
21276;BME280;36472;52.170;20.884;2024-02-15T11:37:55;101021.81;;;8.84;97.51
21276;BME280;36472;52.170;20.884;2024-02-15T11:40:27;101018.44;;;8.99;96.31
21276;BME280;36472;52.170;20.884;2024-02-15T11:43:00;101021.16;;;8.98;96.44
21276;BME280;36472;52.170;20.884;2024-02-15T11:45:31;101017.78;;;9.13;94.67
21276;BME280;36472;52.170;20.884;2024-02-15T11:48:02;101019.47;;;9.32;94.87
21276;BME280;36472;52.170;20.884;2024-02-15T11:50:34;101021.56;;;9.25;94.40
21276;BME280;36472;52.170;20.884;2024-02-15T11:53:06;101023.28;;;9.44;93.81
21276;BME280;36472;52.170;20.884;2024-02-15T11:55:40;101023.81;;;9.50;93.08
21276;BME280;36472;52.170;20.884;2024-02-15T11:58:12;101020.19;;;9.35;93.62
21276;BME280;36472;52.170;20.884;2024-02-15T12:00:50;101022.28;;;9.46;93.70
21276;BME280;36472;52.170;20.884;2024-02-15T12:03:45;101023.50;;;9.22;93.24
21276;BME280;36472;52.170;20.884;2024-02-15T12:06:34;101018.53;;;8.98;95.04
21276;BME280;36472;52.170;20.884;2024-02-15T12:09:22;101014.78;;;9.04;94.80
21276;BME280;36472;52.170;20.884;2024-02-15T12:12:10;101012.00;;;9.24;94.76
21276;BME280;36472;52.170;20.884;2024-02-15T12:15:01;101013.06;;;9.38;93.67
21276;BME280;36472;52.170;20.884;2024-02-15T12:17:48;101007.06;;;9.35;93.91
21276;BME280;36472;52.170;20.884;2024-02-15T12:20:35;101008.75;;;9.54;92.95
21276;BME280;36472;52.170;20.884;2024-02-15T12:23:04;101011.84;;;9.62;93.01
21276;BME280;36472;52.170;20.884;2024-02-15T12:25:36;101008.44;;;9.60;92.88
21276;BME280;36472;52.170;20.884;2024-02-15T12:28:04;101007.66;;;9.58;92.20
21276;BME280;36472;52.170;20.884;2024-02-15T12:30:35;101011.13;;;9.76;91.70
21276;BME280;36472;52.170;20.884;2024-02-15T12:33:10;101007.94;;;9.87;91.54
21276;BME280;36472;52.170;20.884;2024-02-15T12:35:41;101008.56;;;9.74;91.71
21276;BME280;36472;52.170;20.884;2024-02-15T12:38:13;101011.50;;;9.86;91.02
21276;BME280;36472;52.170;20.884;2024-02-15T12:40:45;101007.50;;;9.61;92.57
21276;BME280;36472;52.170;20.884;2024-02-15T12:43:16;101007.47;;;9.79;91.86
21276;BME280;36472;52.170;20.884;2024-02-15T12:45:46;101002.81;;;9.84;91.77
21276;BME280;36472;52.170;20.884;2024-02-15T12:48:40;101017.00;;;10.15;90.59
21276;BME280;36472;52.170;20.884;2024-02-15T12:51:14;101010.63;;;9.85;91.36
21276;BME280;36472;52.170;20.884;2024-02-15T12:53:43;101010.59;;;10.03;90.65
21276;BME280;36472;52.170;20.884;2024-02-15T12:56:20;101008.31;;;10.13;89.96
21276;BME280;36472;52.170;20.884;2024-02-15T12:58:52;101008.00;;;9.85;89.71
21276;BME280;36472;52.170;20.884;2024-02-15T13:01:22;101007.56;;;10.10;89.64
21276;BME280;36472;52.170;20.884;2024-02-15T13:03:57;100996.81;;;10.15;89.32
21276;BME280;36472;52.170;20.884;2024-02-15T13:06:26;100991.47;;;10.17;89.95
21276;BME280;36472;52.170;20.884;2024-02-15T13:08:56;100990.97;;;10.26;90.32
21276;BME280;36472;52.170;20.884;2024-02-15T13:11:26;100991.44;;;10.01;90.12
21276;BME280;36472;52.170;20.884;2024-02-15T13:13:55;100985.25;;;10.35;89.18